Aviation Digital Data Service (ADDS)

Output produced by TAFs form (0232 UTC 23 January 2017)
found at http://aviationweather.gov/adds/tafs/
 
KGJT 230044Z 2301/2324 15012KT P6SM VCSH OVC050 
     FM230600 12009KT P6SM VCSH OVC050 
     FM230800 14006KT P6SM -SHSN OVC030 
     FM231300 14008KT P6SM -SHSN OVC020 
     FM231800 23015G25KT 5SM -SN BR OVC015